• Join FlightAware (Why Join?)
  • Login
  • US Flag 
10:57AM EST


 

Airport Tracker/Info


-or-


 

Live Flight TrackerFlight Track Log ✈ N311JE ✈ 03-Apr-2014 ✈ KCMI - KDPA

Flight Track Log - Related Links

Times and Time Zones

All times are in EDT time to prevent confusion due to time zone crossing. See the N311JE flight status page for this flight to view local times or setup timezone preferences in your user account.

Time Position Orientation Groundspeed Altitude Reporting Facility
EDT Latitude Longitude Course Direction KTS MPH feet Rate Location/Type
03:46PM 40.1569 -88.3444 336° Northwest 129 148 3,500  Level Chicago Center
03:47PM 40.1906 -88.3572 344° North 129 148 4,200 600 Climbing Chicago Center
03:48PM 40.2194 -88.3811 328° Northwest 129 148 4,800 360 Climbing Chicago Center
03:49PM 40.2519 -88.3969 340° North 125 144 5,000 60 Climbing Chicago Center
03:50PM 40.2693 -88.4062 337° Northwest  Level FlightAware Approximate
03:50PM 40.2914 -88.4217 334° Northwest 147 169 5,000  Level Chicago Center
03:51PM 40.3089 -88.4288 336° Northwest  Level FlightAware Approximate
03:51PM 40.3303 -88.4442 336° Northwest 152 175 5,000  Level Chicago Center
03:52PM 40.3485 -88.4514 336° Northwest  Level FlightAware Approximate
03:53PM 40.3753 -88.4683 338° Northwest 152 175 5,000  Level Chicago Center
03:54PM 40.4150 -88.4928 335° Northwest 155 178 5,000  Level Chicago Center
03:55PM 40.4606 -88.4897 North 156 180 5,000  Level Chicago Center
03:56PM 40.5044 -88.5044 346° North 163 188 5,100  Climbing Chicago Center
03:57PM 40.5478 -88.5111 353° North 161 185 5,100  Level Chicago Center
03:58PM 40.5942 -88.5108 360° North 161 185 5,100  Level Chicago Center
03:59PM 40.6475 -88.5269 347° North 161 185 5,100  Level Chicago Center
04:00PM 40.6925 -88.5314 356° North 162 186 5,100  Level Chicago Center
04:01PM 40.7381 -88.5378 354° North 162 186 5,100  Level Chicago Center
04:02PM 40.7833 -88.5494 349° North 162 186 5,100  Level Chicago Center
04:03PM 40.8292 -88.5539 356° North 162 186 5,100  Level Chicago Center
04:04PM 40.8736 -88.5619 352° North 162 186 5,100  Level Chicago Center
04:05PM 40.9186 -88.5703 352° North 162 186 5,100  Level Chicago Center
04:06PM 40.9725 -88.5769 355° North 162 186 5,100  Level Chicago Center
04:07PM 41.0167 -88.5861 351° North 162 186 5,100  Level Chicago Center
04:08PM 41.0614 -88.5886 358° North 154 177 5,100  Level Chicago Center
04:09PM 41.1053 -88.5997 349° North 155 178 5,100  Level Chicago Center
04:10PM 41.1533 -88.6044 356° North 157 181 5,100  Level Chicago Center
04:11PM 41.1981 -88.6156 349° North 160 184 5,100  Level Chicago Center
04:12PM 41.2433 -88.6219 354° North 160 184 5,100  Level Chicago Center
04:13PM 41.2919 -88.6283 354° North 161 185 5,200  Climbing Chicago Center
04:14PM 41.3372 -88.6386 350° North 163 188 5,200  Level Chicago Center
04:15PM 41.3875 -88.6439 355° North 164 189 5,200  Level Chicago Center
04:16PM 41.4333 -88.6428 North 165 190 5,200  Level Chicago Center
04:17PM 41.4781 -88.6300 12° North 166 191 5,200  Level Chicago Center
04:18PM 41.5289 -88.6289 North 166 191 5,200  Level Chicago Center
04:19PM 41.5747 -88.6172 11° North 167 192 5,200  Level Chicago Center
04:20PM 41.6228 -88.6011 14° North 167 192 5,200  Level Chicago Center
04:21PM 41.6458 -88.5492 59° Northeast 161 185 5,200 -540 Level Chicago Center
04:22PM 41.6631 -88.4869 70° East 176 203 4,200 -960 Descending Chicago Center
04:23PM 41.6808 -88.4267 68° East 167 192 3,300 -660 Descending Chicago Center
04:24PM 41.6969 -88.3719 68° East 161 185 2,900 -420 Descending Chicago Center
04:26PM 41.7222 -88.3206 57° Northeast 156 180 2,500 -240 Descending Chicago Center
04:27PM 41.7525 -88.2994 27° Northeast 130 150 2,500  Level Chicago Center
04:28PM 41.7825 -88.2892 14° North 114 131 2,500  Level Chicago Center
04:29PM 41.8128 -88.2797 13° North 109 125 2,500 -300 Level Chicago Center
04:30PM 41.8381 -88.2708 15° North 99 114 2,000 -480 Descending Chicago Center
04:31PM 41.8603 -88.2625 16° North 96 110 1,600 -420 Descending Chicago Center
04:36PM 41.9000 -88.2333 37° Northeast  Level FlightAware Approximate